sensor_id;sensor_type;location;lat;lon;timestamp;temperature;humidity
54622;DHT22;40521;53.146;6.556;2022-11-03T00:01:47;9.90;99.90
54622;DHT22;40521;53.146;6.556;2022-11-03T00:04:15;9.80;99.90
54622;DHT22;40521;53.146;6.556;2022-11-03T00:06:42;9.80;99.90
54622;DHT22;40521;53.146;6.556;2022-11-03T00:09:09;9.80;99.90
54622;DHT22;40521;53.146;6.556;2022-11-03T00:11:38;9.90;99.90
54622;DHT22;40521;53.146;6.556;2022-11-03T00:14:04;10.10;99.90
54622;DHT22;40521;53.146;6.556;2022-11-03T00:16:30;9.90;99.90
54622;DHT22;40521;53.146;6.556;2022-11-03T00:18:56;9.90;99.90
54622;DHT22;40521;53.146;6.556;2022-11-03T00:21:22;10.00;99.90
54622;DHT22;40521;53.146;6.556;2022-11-03T00:23:47;9.90;99.90
54622;DHT22;40521;53.146;6.556;2022-11-03T00:26:17;8.50;99.90
54622;DHT22;40521;53.146;6.556;2022-11-03T00:28:43;9.80;99.90
54622;DHT22;40521;53.146;6.556;2022-11-03T00:31:10;9.90;99.90
54622;DHT22;40521;53.146;6.556;2022-11-03T00:33:42;9.90;99.90
54622;DHT22;40521;53.146;6.556;2022-11-03T00:36:12;9.90;99.90
54622;DHT22;40521;53.146;6.556;2022-11-03T00:38:37;8.10;99.90
54622;DHT22;40521;53.146;6.556;2022-11-03T00:41:03;10.00;99.90
54622;DHT22;40521;53.146;6.556;2022-11-03T00:43:30;9.80;99.90
54622;DHT22;40521;53.146;6.556;2022-11-03T00:45:56;9.70;99.90
54622;DHT22;40521;53.146;6.556;2022-11-03T00:48:22;9.70;99.90
54622;DHT22;40521;53.146;6.556;2022-11-03T00:53:28;9.70;99.90
54622;DHT22;40521;53.146;6.556;2022-11-03T00:55:54;9.30;99.90
54622;DHT22;40521;53.146;6.556;2022-11-03T00:58:20;9.60;99.90
54622;DHT22;40521;53.146;6.556;2022-11-03T01:00:45;9.60;99.90
54622;DHT22;40521;53.146;6.556;2022-11-03T01:03:11;9.70;99.90
54622;DHT22;40521;53.146;6.556;2022-11-03T01:05:41;8.30;99.90
54622;DHT22;40521;53.146;6.556;2022-11-03T01:08:39;9.50;99.90
54622;DHT22;40521;53.146;6.556;2022-11-03T01:13:49;9.70;99.90
54622;DHT22;40521;53.146;6.556;2022-11-03T01:16:15;9.40;99.90
54622;DHT22;40521;53.146;6.556;2022-11-03T01:18:40;9.40;99.90
54622;DHT22;40521;53.146;6.556;2022-11-03T01:21:06;9.40;99.90
54622;DHT22;40521;53.146;6.556;2022-11-03T01:23:33;9.50;99.90
54622;DHT22;40521;53.146;6.556;2022-11-03T01:26:02;9.40;99.90
54622;DHT22;40521;53.146;6.556;2022-11-03T01:28:28;9.50;99.90
54622;DHT22;40521;53.146;6.556;2022-11-03T01:30:56;9.70;99.90
54622;DHT22;40521;53.146;6.556;2022-11-03T01:33:26;9.70;99.90
54622;DHT22;40521;53.146;6.556;2022-11-03T01:35:52;9.50;99.90
54622;DHT22;40521;53.146;6.556;2022-11-03T01:38:18;9.60;99.90
54622;DHT22;40521;53.146;6.556;2022-11-03T01:40:43;9.60;99.90
54622;DHT22;40521;53.146;6.556;2022-11-03T01:43:13;9.50;99.90
54622;DHT22;40521;53.146;6.556;2022-11-03T01:45:39;9.50;99.90
54622;DHT22;40521;53.146;6.556;2022-11-03T01:48:04;9.50;99.90
54622;DHT22;40521;53.146;6.556;2022-11-03T01:50:30;9.40;99.90
54622;DHT22;40521;53.146;6.556;2022-11-03T01:52:56;9.50;99.90
54622;DHT22;40521;53.146;6.556;2022-11-03T01:55:23;9.50;99.90
54622;DHT22;40521;53.146;6.556;2022-11-03T01:57:54;9.50;99.90
54622;DHT22;40521;53.146;6.556;2022-11-03T02:00:24;7.80;99.90
54622;DHT22;40521;53.146;6.556;2022-11-03T02:02:50;9.40;99.90
54622;DHT22;40521;53.146;6.556;2022-11-03T02:05:20;9.50;99.90
54622;DHT22;40521;53.146;6.556;2022-11-03T02:07:56;9.50;99.90
54622;DHT22;40521;53.146;6.556;2022-11-03T02:10:23;9.30;99.90
54622;DHT22;40521;53.146;6.556;2022-11-03T02:12:49;9.30;99.90
54622;DHT22;40521;53.146;6.556;2022-11-03T02:15:15;9.20;99.90
54622;DHT22;40521;53.146;6.556;2022-11-03T02:17:45;9.20;99.90
54622;DHT22;40521;53.146;6.556;2022-11-03T02:20:14;9.20;99.90
54622;DHT22;40521;53.146;6.556;2022-11-03T02:27:57;9.30;99.90
54622;DHT22;40521;53.146;6.556;2022-11-03T02:30:22;9.30;99.90
54622;DHT22;40521;53.146;6.556;2022-11-03T02:32:54;9.20;99.90
54622;DHT22;40521;53.146;6.556;2022-11-03T02:35:32;9.30;99.90
54622;DHT22;40521;53.146;6.556;2022-11-03T02:37:59;9.20;99.90
54622;DHT22;40521;53.146;6.556;2022-11-03T02:40:27;9.20;99.90
54622;DHT22;40521;53.146;6.556;2022-11-03T02:42:54;9.10;99.90
54622;DHT22;40521;53.146;6.556;2022-11-03T02:45:21;9.30;99.90
54622;DHT22;40521;53.146;6.556;2022-11-03T02:47:48;9.20;99.90
54622;DHT22;40521;53.146;6.556;2022-11-03T02:50:14;9.20;99.90
54622;DHT22;40521;53.146;6.556;2022-11-03T02:52:41;9.20;99.90
54622;DHT22;40521;53.146;6.556;2022-11-03T02:55:28;9.40;99.90
54622;DHT22;40521;53.146;6.556;2022-11-03T02:57:59;9.20;99.90
54622;DHT22;40521;53.146;6.556;2022-11-03T03:00:27;9.50;99.90
54622;DHT22;40521;53.146;6.556;2022-11-03T03:03:15;9.20;99.90
54622;DHT22;40521;53.146;6.556;2022-11-03T03:05:42;9.20;99.90
54622;DHT22;40521;53.146;6.556;2022-11-03T03:08:09;10.60;99.90
54622;DHT22;40521;53.146;6.556;2022-11-03T03:10:45;9.20;99.90
54622;DHT22;40521;53.146;6.556;2022-11-03T03:13:12;9.30;99.90
54622;DHT22;40521;53.146;6.556;2022-11-03T03:15:47;9.30;99.90
54622;DHT22;40521;53.146;6.556;2022-11-03T03:23:42;9.40;99.90
54622;DHT22;40521;53.146;6.556;2022-11-03T03:26:19;9.60;99.90
54622;DHT22;40521;53.146;6.556;2022-11-03T03:28:52;9.40;99.90
54622;DHT22;40521;53.146;6.556;2022-11-03T03:31:20;9.40;99.90
54622;DHT22;40521;53.146;6.556;2022-11-03T03:33:47;8.00;99.90
54622;DHT22;40521;53.146;6.556;2022-11-03T03:36:15;9.40;99.90
54622;DHT22;40521;53.146;6.556;2022-11-03T03:38:49;9.40;99.90
54622;DHT22;40521;53.146;6.556;2022-11-03T03:41:16;9.50;99.90
54622;DHT22;40521;53.146;6.556;2022-11-03T03:43:50;9.40;99.90
54622;DHT22;40521;53.146;6.556;2022-11-03T03:46:19;9.50;99.90
54622;DHT22;40521;53.146;6.556;2022-11-03T03:48:45;9.80;99.90
54622;DHT22;40521;53.146;6.556;2022-11-03T03:51:11;9.70;99.90
54622;DHT22;40521;53.146;6.556;2022-11-03T03:53:38;9.60;99.90
54622;DHT22;40521;53.146;6.556;2022-11-03T03:56:04;9.50;99.90
54622;DHT22;40521;53.146;6.556;2022-11-03T03:58:30;8.30;99.90
54622;DHT22;40521;53.146;6.556;2022-11-03T04:00:55;8.00;99.90
54622;DHT22;40521;53.146;6.556;2022-11-03T04:03:22;9.70;99.90
54622;DHT22;40521;53.146;6.556;2022-11-03T04:05:48;9.50;99.90
54622;DHT22;40521;53.146;6.556;2022-11-03T04:08:15;9.40;99.90
54622;DHT22;40521;53.146;6.556;2022-11-03T04:10:43;9.80;99.90
54622;DHT22;40521;53.146;6.556;2022-11-03T04:13:29;9.40;99.90
54622;DHT22;40521;53.146;6.556;2022-11-03T04:16:13;9.30;99.90
54622;DHT22;40521;53.146;6.556;2022-11-03T04:18:58;9.40;99.90
54622;DHT22;40521;53.146;6.556;2022-11-03T04:21:42;9.40;99.90
54622;DHT22;40521;53.146;6.556;2022-11-03T04:24:26;9.40;99.90
54622;DHT22;40521;53.146;6.556;2022-11-03T04:26:52;9.50;99.90
54622;DHT22;40521;53.146;6.556;2022-11-03T04:29:18;9.40;99.90
54622;DHT22;40521;53.146;6.556;2022-11-03T04:31:43;9.40;99.90
54622;DHT22;40521;53.146;6.556;2022-11-03T04:34:10;9.60;99.90
54622;DHT22;40521;53.146;6.556;2022-11-03T04:36:38;9.40;99.90
54622;DHT22;40521;53.146;6.556;2022-11-03T04:39:19;9.40;99.90
54622;DHT22;40521;53.146;6.556;2022-11-03T04:41:45;9.40;99.90
54622;DHT22;40521;53.146;6.556;2022-11-03T04:44:12;9.60;99.90
54622;DHT22;40521;53.146;6.556;2022-11-03T04:46:39;8.60;99.90
54622;DHT22;40521;53.146;6.556;2022-11-03T04:49:04;9.60;99.90
54622;DHT22;40521;53.146;6.556;2022-11-03T04:51:32;9.50;99.90
54622;DHT22;40521;53.146;6.556;2022-11-03T04:54:03;9.60;99.90
54622;DHT22;40521;53.146;6.556;2022-11-03T04:56:30;9.50;99.90
54622;DHT22;40521;53.146;6.556;2022-11-03T04:58:58;9.50;99.90
54622;DHT22;40521;53.146;6.556;2022-11-03T05:01:23;9.50;99.90
54622;DHT22;40521;53.146;6.556;2022-11-03T05:03:50;9.60;99.90
54622;DHT22;40521;53.146;6.556;2022-11-03T05:06:36;9.60;99.90
54622;DHT22;40521;53.146;6.556;2022-11-03T05:09:06;9.50;99.90
54622;DHT22;40521;53.146;6.556;2022-11-03T05:11:43;9.50;99.90
54622;DHT22;40521;53.146;6.556;2022-11-03T05:16:38;9.40;99.90
54622;DHT22;40521;53.146;6.556;2022-11-03T05:19:03;9.40;99.90
54622;DHT22;40521;53.146;6.556;2022-11-03T05:21:33;9.40;99.90
54622;DHT22;40521;53.146;6.556;2022-11-03T05:24:01;9.40;99.90
54622;DHT22;40521;53.146;6.556;2022-11-03T05:26:33;9.50;99.90
54622;DHT22;40521;53.146;6.556;2022-11-03T05:29:05;9.50;99.90
54622;DHT22;40521;53.146;6.556;2022-11-03T05:31:34;9.60;99.90
54622;DHT22;40521;53.146;6.556;2022-11-03T05:34:01;9.40;99.90
54622;DHT22;40521;53.146;6.556;2022-11-03T05:36:29;8.40;99.90
54622;DHT22;40521;53.146;6.556;2022-11-03T05:39:00;9.30;99.90
54622;DHT22;40521;53.146;6.556;2022-11-03T05:41:30;9.30;99.90
54622;DHT22;40521;53.146;6.556;2022-11-03T05:46:58;9.60;99.90
54622;DHT22;40521;53.146;6.556;2022-11-03T05:49:24;9.50;99.90
54622;DHT22;40521;53.146;6.556;2022-11-03T05:51:50;9.30;99.90
54622;DHT22;40521;53.146;6.556;2022-11-03T05:54:19;9.30;99.90
54622;DHT22;40521;53.146;6.556;2022-11-03T05:56:45;9.30;99.90
54622;DHT22;40521;53.146;6.556;2022-11-03T05:59:14;9.30;99.90
54622;DHT22;40521;53.146;6.556;2022-11-03T06:01:41;9.40;99.90
54622;DHT22;40521;53.146;6.556;2022-11-03T06:04:19;9.30;99.90
54622;DHT22;40521;53.146;6.556;2022-11-03T06:06:51;9.50;99.90
54622;DHT22;40521;53.146;6.556;2022-11-03T06:09:21;9.50;99.90
54622;DHT22;40521;53.146;6.556;2022-11-03T06:11:48;8.60;99.90
54622;DHT22;40521;53.146;6.556;2022-11-03T06:14:19;9.30;99.90
54622;DHT22;40521;53.146;6.556;2022-11-03T06:16:51;9.50;99.90
54622;DHT22;40521;53.146;6.556;2022-11-03T06:19:19;9.30;99.90
54622;DHT22;40521;53.146;6.556;2022-11-03T06:21:46;9.40;99.90
54622;DHT22;40521;53.146;6.556;2022-11-03T06:24:12;9.80;99.90
54622;DHT22;40521;53.146;6.556;2022-11-03T06:26:38;8.60;99.90
54622;DHT22;40521;53.146;6.556;2022-11-03T06:29:07;8.40;99.90
54622;DHT22;40521;53.146;6.556;2022-11-03T06:31:33;9.20;99.90
54622;DHT22;40521;53.146;6.556;2022-11-03T06:33:59;11.00;99.90
54622;DHT22;40521;53.146;6.556;2022-11-03T06:36:30;9.50;99.90
54622;DHT22;40521;53.146;6.556;2022-11-03T06:38:59;9.50;99.90
54622;DHT22;40521;53.146;6.556;2022-11-03T06:41:26;9.20;99.90
54622;DHT22;40521;53.146;6.556;2022-11-03T06:43:54;9.20;99.90
54622;DHT22;40521;53.146;6.556;2022-11-03T06:46:21;9.20;99.90
54622;DHT22;40521;53.146;6.556;2022-11-03T06:48:53;9.20;99.90
54622;DHT22;40521;53.146;6.556;2022-11-03T06:51:20;9.60;99.90
54622;DHT22;40521;53.146;6.556;2022-11-03T06:53:50;9.60;99.90
54622;DHT22;40521;53.146;6.556;2022-11-03T06:56:23;9.30;99.90
54622;DHT22;40521;53.146;6.556;2022-11-03T06:58:52;8.10;99.90
54622;DHT22;40521;53.146;6.556;2022-11-03T07:01:30;9.40;99.90
54622;DHT22;40521;53.146;6.556;2022-11-03T07:04:00;9.40;99.90
54622;DHT22;40521;53.146;6.556;2022-11-03T07:06:38;9.40;99.90
54622;DHT22;40521;53.146;6.556;2022-11-03T07:09:04;9.90;99.90
54622;DHT22;40521;53.146;6.556;2022-11-03T07:11:33;9.70;99.90
54622;DHT22;40521;53.146;6.556;2022-11-03T07:14:16;9.50;99.90
54622;DHT22;40521;53.146;6.556;2022-11-03T07:16:43;9.50;99.90
54622;DHT22;40521;53.146;6.556;2022-11-03T07:19:15;9.50;99.90
54622;DHT22;40521;53.146;6.556;2022-11-03T07:21:51;9.60;99.90
54622;DHT22;40521;53.146;6.556;2022-11-03T07:24:19;9.60;99.90
54622;DHT22;40521;53.146;6.556;2022-11-03T07:26:53;9.60;99.90
54622;DHT22;40521;53.146;6.556;2022-11-03T07:29:21;9.70;99.90
54622;DHT22;40521;53.146;6.556;2022-11-03T07:31:49;9.70;99.90
54622;DHT22;40521;53.146;6.556;2022-11-03T07:34:21;9.70;99.90
54622;DHT22;40521;53.146;6.556;2022-11-03T07:36:48;9.80;99.90
54622;DHT22;40521;53.146;6.556;2022-11-03T07:39:16;9.80;99.90
54622;DHT22;40521;53.146;6.556;2022-11-03T07:41:42;9.90;99.90
54622;DHT22;40521;53.146;6.556;2022-11-03T07:44:20;9.90;99.90
54622;DHT22;40521;53.146;6.556;2022-11-03T07:46:46;9.90;99.90
54622;DHT22;40521;53.146;6.556;2022-11-03T07:51:50;10.00;99.90
54622;DHT22;40521;53.146;6.556;2022-11-03T07:54:29;10.10;99.90
54622;DHT22;40521;53.146;6.556;2022-11-03T07:57:00;10.10;99.90
54622;DHT22;40521;53.146;6.556;2022-11-03T07:59:35;11.00;99.90
54622;DHT22;40521;53.146;6.556;2022-11-03T08:02:05;10.20;99.90
54622;DHT22;40521;53.146;6.556;2022-11-03T08:04:39;10.20;99.90
54622;DHT22;40521;53.146;6.556;2022-11-03T08:07:04;10.30;99.90
54622;DHT22;40521;53.146;6.556;2022-11-03T08:09:30;10.30;99.90
54622;DHT22;40521;53.146;6.556;2022-11-03T08:11:56;10.40;99.90
54622;DHT22;40521;53.146;6.556;2022-11-03T08:14:21;10.40;99.90
54622;DHT22;40521;53.146;6.556;2022-11-03T08:16:47;10.50;99.90
54622;DHT22;40521;53.146;6.556;2022-11-03T08:19:13;10.50;99.90
54622;DHT22;40521;53.146;6.556;2022-11-03T08:21:38;10.60;99.90
54622;DHT22;40521;53.146;6.556;2022-11-03T08:24:05;10.70;99.90
54622;DHT22;40521;53.146;6.556;2022-11-03T08:26:30;10.70;99.90
54622;DHT22;40521;53.146;6.556;2022-11-03T08:28:56;11.00;99.90
54622;DHT22;40521;53.146;6.556;2022-11-03T08:31:22;10.90;99.90
54622;DHT22;40521;53.146;6.556;2022-11-03T08:33:47;12.10;99.90
54622;DHT22;40521;53.146;6.556;2022-11-03T08:36:13;11.00;99.90
54622;DHT22;40521;53.146;6.556;2022-11-03T08:38:39;11.10;99.90
54622;DHT22;40521;53.146;6.556;2022-11-03T08:41:04;11.20;99.90
54622;DHT22;40521;53.146;6.556;2022-11-03T08:43:30;11.30;99.90
54622;DHT22;40521;53.146;6.556;2022-11-03T08:45:56;11.40;99.90
54622;DHT22;40521;53.146;6.556;2022-11-03T08:48:25;11.40;99.90
54622;DHT22;40521;53.146;6.556;2022-11-03T08:50:59;12.20;99.90
54622;DHT22;40521;53.146;6.556;2022-11-03T08:53:25;11.50;99.90
54622;DHT22;40521;53.146;6.556;2022-11-03T08:55:54;11.60;99.90
54622;DHT22;40521;53.146;6.556;2022-11-03T08:58:20;11.50;99.90
54622;DHT22;40521;53.146;6.556;2022-11-03T09:00:47;11.60;99.90
54622;DHT22;40521;53.146;6.556;2022-11-03T09:03:12;11.60;99.90
54622;DHT22;40521;53.146;6.556;2022-11-03T09:05:38;10.30;99.90
54622;DHT22;40521;53.146;6.556;2022-11-03T09:08:04;11.70;99.90
54622;DHT22;40521;53.146;6.556;2022-11-03T09:10:30;11.70;99.90
54622;DHT22;40521;53.146;6.556;2022-11-03T09:12:55;11.80;99.90
54622;DHT22;40521;53.146;6.556;2022-11-03T09:15:21;11.60;99.90
54622;DHT22;40521;53.146;6.556;2022-11-03T09:17:56;11.90;99.90
54622;DHT22;40521;53.146;6.556;2022-11-03T09:20:22;12.00;99.90
54622;DHT22;40521;53.146;6.556;2022-11-03T09:22:47;11.70;99.90
54622;DHT22;40521;53.146;6.556;2022-11-03T09:25:13;11.60;99.90
54622;DHT22;40521;53.146;6.556;2022-11-03T09:27:39;10.40;99.90
54622;DHT22;40521;53.146;6.556;2022-11-03T09:30:07;12.00;99.90
54622;DHT22;40521;53.146;6.556;2022-11-03T09:32:33;12.00;99.90
54622;DHT22;40521;53.146;6.556;2022-11-03T09:34:59;12.10;99.90
54622;DHT22;40521;53.146;6.556;2022-11-03T09:37:24;10.60;99.90
54622;DHT22;40521;53.146;6.556;2022-11-03T09:39:50;13.50;99.90
54622;DHT22;40521;53.146;6.556;2022-11-03T09:42:16;12.20;99.90
54622;DHT22;40521;53.146;6.556;2022-11-03T09:44:43;12.20;99.90
54622;DHT22;40521;53.146;6.556;2022-11-03T09:47:12;12.30;99.90
54622;DHT22;40521;53.146;6.556;2022-11-03T09:49:45;12.30;99.90
54622;DHT22;40521;53.146;6.556;2022-11-03T09:52:11;12.40;99.90
54622;DHT22;40521;53.146;6.556;2022-11-03T09:54:38;12.60;99.90
54622;DHT22;40521;53.146;6.556;2022-11-03T09:57:10;12.60;99.90
54622;DHT22;40521;53.146;6.556;2022-11-03T09:59:36;12.60;99.90
54622;DHT22;40521;53.146;6.556;2022-11-03T10:02:02;12.90;99.90
54622;DHT22;40521;53.146;6.556;2022-11-03T10:04:28;12.80;99.90
54622;DHT22;40521;53.146;6.556;2022-11-03T10:06:54;12.90;99.90
54622;DHT22;40521;53.146;6.556;2022-11-03T10:09:20;13.00;99.90
54622;DHT22;40521;53.146;6.556;2022-11-03T10:11:47;13.00;99.90
54622;DHT22;40521;53.146;6.556;2022-11-03T10:14:15;13.40;99.90
54622;DHT22;40521;53.146;6.556;2022-11-03T10:16:42;13.00;99.90
54622;DHT22;40521;53.146;6.556;2022-11-03T10:19:11;13.30;99.90
54622;DHT22;40521;53.146;6.556;2022-11-03T10:21:38;13.40;99.90
54622;DHT22;40521;53.146;6.556;2022-11-03T10:24:05;13.50;99.90
54622;DHT22;40521;53.146;6.556;2022-11-03T10:26:41;13.50;99.90
54622;DHT22;40521;53.146;6.556;2022-11-03T10:29:07;13.50;99.90
54622;DHT22;40521;53.146;6.556;2022-11-03T10:31:44;13.50;99.90
54622;DHT22;40521;53.146;6.556;2022-11-03T10:34:34;13.50;99.90
54622;DHT22;40521;53.146;6.556;2022-11-03T10:39:30;13.50;99.90
54622;DHT22;40521;53.146;6.556;2022-11-03T10:41:56;13.60;99.90
54622;DHT22;40521;53.146;6.556;2022-11-03T10:44:22;13.60;99.90
54622;DHT22;40521;53.146;6.556;2022-11-03T10:47:00;13.70;99.90
54622;DHT22;40521;53.146;6.556;2022-11-03T10:49:27;13.80;99.90
54622;DHT22;40521;53.146;6.556;2022-11-03T10:51:53;14.00;99.90
54622;DHT22;40521;53.146;6.556;2022-11-03T10:54:22;14.20;99.90
54622;DHT22;40521;53.146;6.556;2022-11-03T10:56:48;14.30;99.90
54622;DHT22;40521;53.146;6.556;2022-11-03T11:01:43;14.40;99.90
54622;DHT22;40521;53.146;6.556;2022-11-03T11:04:18;14.60;99.90
54622;DHT22;40521;53.146;6.556;2022-11-03T11:06:45;14.60;99.90
54622;DHT22;40521;53.146;6.556;2022-11-03T11:09:12;14.60;99.90
54622;DHT22;40521;53.146;6.556;2022-11-03T11:14:55;14.70;99.90
54622;DHT22;40521;53.146;6.556;2022-11-03T11:22:47;14.90;99.90
54622;DHT22;40521;53.146;6.556;2022-11-03T11:25:13;14.90;99.90
54622;DHT22;40521;53.146;6.556;2022-11-03T11:30:05;14.90;99.90
54622;DHT22;40521;53.146;6.556;2022-11-03T11:35:00;15.10;99.90
54622;DHT22;40521;53.146;6.556;2022-11-03T11:39:51;15.10;99.90
54622;DHT22;40521;53.146;6.556;2022-11-03T11:42:17;15.10;99.90
54622;DHT22;40521;53.146;6.556;2022-11-03T11:47:26;15.00;99.90
54622;DHT22;40521;53.146;6.556;2022-11-03T11:53:17;14.90;99.90
54622;DHT22;40521;53.146;6.556;2022-11-03T11:57:44;14.90;99.90
54622;DHT22;40521;53.146;6.556;2022-11-03T12:00:23;14.90;99.90
54622;DHT22;40521;53.146;6.556;2022-11-03T12:02:53;14.90;99.90
54622;DHT22;40521;53.146;6.556;2022-11-03T12:07:44;14.90;99.90
54622;DHT22;40521;53.146;6.556;2022-11-03T12:10:17;14.90;99.90
54622;DHT22;40521;53.146;6.556;2022-11-03T12:12:43;14.90;99.90
54622;DHT22;40521;53.146;6.556;2022-11-03T12:17:53;14.90;99.90
54622;DHT22;40521;53.146;6.556;2022-11-03T12:20:34;14.90;99.90
54622;DHT22;40521;53.146;6.556;2022-11-03T12:23:00;14.90;99.90
54622;DHT22;40521;53.146;6.556;2022-11-03T12:25:35;14.90;99.90
54622;DHT22;40521;53.146;6.556;2022-11-03T12:28:00;14.80;99.90
54622;DHT22;40521;53.146;6.556;2022-11-03T12:30:26;14.80;99.90
54622;DHT22;40521;53.146;6.556;2022-11-03T12:32:52;14.80;99.90
54622;DHT22;40521;53.146;6.556;2022-11-03T12:35:17;14.80;99.90
54622;DHT22;40521;53.146;6.556;2022-11-03T12:37:43;14.80;99.90
54622;DHT22;40521;53.146;6.556;2022-11-03T12:40:10;14.80;99.90
54622;DHT22;40521;53.146;6.556;2022-11-03T12:42:36;14.70;99.90
54622;DHT22;40521;53.146;6.556;2022-11-03T12:45:04;14.70;99.90
54622;DHT22;40521;53.146;6.556;2022-11-03T12:47:31;14.70;99.90
54622;DHT22;40521;53.146;6.556;2022-11-03T12:49:57;13.30;99.90
54622;DHT22;40521;53.146;6.556;2022-11-03T12:52:22;14.70;99.90
54622;DHT22;40521;53.146;6.556;2022-11-03T12:54:48;14.60;99.90
54622;DHT22;40521;53.146;6.556;2022-11-03T12:57:14;14.70;99.90
54622;DHT22;40521;53.146;6.556;2022-11-03T12:59:39;14.60;99.90
54622;DHT22;40521;53.146;6.556;2022-11-03T13:02:05;14.50;99.90
54622;DHT22;40521;53.146;6.556;2022-11-03T13:04:31;14.70;99.90
54622;DHT22;40521;53.146;6.556;2022-11-03T13:06:56;14.80;99.90
54622;DHT22;40521;53.146;6.556;2022-11-03T13:09:22;14.90;99.90
54622;DHT22;40521;53.146;6.556;2022-11-03T13:11:47;15.00;99.90
54622;DHT22;40521;53.146;6.556;2022-11-03T13:14:32;15.10;99.90
54622;DHT22;40521;53.146;6.556;2022-11-03T13:16:57;15.20;99.90
54622;DHT22;40521;53.146;6.556;2022-11-03T13:19:23;15.20;99.90
54622;DHT22;40521;53.146;6.556;2022-11-03T13:21:48;15.20;99.90
54622;DHT22;40521;53.146;6.556;2022-11-03T13:24:14;15.20;99.90
54622;DHT22;40521;53.146;6.556;2022-11-03T13:26:40;15.20;99.90
54622;DHT22;40521;53.146;6.556;2022-11-03T13:29:05;15.20;99.90
54622;DHT22;40521;53.146;6.556;2022-11-03T13:31:31;15.20;99.90
54622;DHT22;40521;53.146;6.556;2022-11-03T13:33:56;15.10;99.90
54622;DHT22;40521;53.146;6.556;2022-11-03T13:36:22;15.10;99.90
54622;DHT22;40521;53.146;6.556;2022-11-03T13:38:47;15.00;99.90
54622;DHT22;40521;53.146;6.556;2022-11-03T13:41:13;15.00;99.90
54622;DHT22;40521;53.146;6.556;2022-11-03T13:43:39;15.00;99.90
54622;DHT22;40521;53.146;6.556;2022-11-03T13:46:04;15.00;99.90
54622;DHT22;40521;53.146;6.556;2022-11-03T13:48:30;14.90;99.90
54622;DHT22;40521;53.146;6.556;2022-11-03T13:50:55;14.90;99.90
54622;DHT22;40521;53.146;6.556;2022-11-03T13:53:21;14.90;99.90
54622;DHT22;40521;53.146;6.556;2022-11-03T13:55:47;14.80;99.90
54622;DHT22;40521;53.146;6.556;2022-11-03T13:58:12;14.80;99.90
54622;DHT22;40521;53.146;6.556;2022-11-03T14:00:38;14.70;99.90
54622;DHT22;40521;53.146;6.556;2022-11-03T14:03:04;14.70;99.90
54622;DHT22;40521;53.146;6.556;2022-11-03T14:05:29;14.70;99.90
54622;DHT22;40521;53.146;6.556;2022-11-03T14:07:55;14.70;99.90
54622;DHT22;40521;53.146;6.556;2022-11-03T14:10:21;14.00;99.90
54622;DHT22;40521;53.146;6.556;2022-11-03T14:12:46;12.70;99.90
54622;DHT22;40521;53.146;6.556;2022-11-03T14:15:12;14.60;99.90
54622;DHT22;40521;53.146;6.556;2022-11-03T14:17:38;14.50;99.90
54622;DHT22;40521;53.146;6.556;2022-11-03T14:20:05;14.50;99.90
54622;DHT22;40521;53.146;6.556;2022-11-03T14:22:34;14.40;99.90
54622;DHT22;40521;53.146;6.556;2022-11-03T14:25:00;14.40;99.90
54622;DHT22;40521;53.146;6.556;2022-11-03T14:27:25;14.40;99.90
54622;DHT22;40521;53.146;6.556;2022-11-03T14:29:51;13.20;99.90
54622;DHT22;40521;53.146;6.556;2022-11-03T14:32:17;14.40;99.90
54622;DHT22;40521;53.146;6.556;2022-11-03T14:34:43;14.40;99.90
54622;DHT22;40521;53.146;6.556;2022-11-03T14:37:09;14.30;99.90
54622;DHT22;40521;53.146;6.556;2022-11-03T14:39:35;14.30;99.90
54622;DHT22;40521;53.146;6.556;2022-11-03T14:42:01;14.30;99.90
54622;DHT22;40521;53.146;6.556;2022-11-03T14:44:30;14.30;99.90
54622;DHT22;40521;53.146;6.556;2022-11-03T14:46:56;14.20;99.90
54622;DHT22;40521;53.146;6.556;2022-11-03T14:49:22;14.30;99.90
54622;DHT22;40521;53.146;6.556;2022-11-03T14:51:48;12.00;99.90
54622;DHT22;40521;53.146;6.556;2022-11-03T14:54:13;14.00;99.90
54622;DHT22;40521;53.146;6.556;2022-11-03T14:56:39;14.00;99.90
54622;DHT22;40521;53.146;6.556;2022-11-03T14:59:05;13.90;99.90
54622;DHT22;40521;53.146;6.556;2022-11-03T15:01:30;13.90;99.90
54622;DHT22;40521;53.146;6.556;2022-11-03T15:03:56;14.00;99.90
54622;DHT22;40521;53.146;6.556;2022-11-03T15:06:24;14.00;99.90
54622;DHT22;40521;53.146;6.556;2022-11-03T15:08:50;12.50;99.90
54622;DHT22;40521;53.146;6.556;2022-11-03T15:11:18;14.00;99.90
54622;DHT22;40521;53.146;6.556;2022-11-03T15:13:44;14.00;99.90
54622;DHT22;40521;53.146;6.556;2022-11-03T15:16:09;12.40;99.90
54622;DHT22;40521;53.146;6.556;2022-11-03T15:18:35;14.10;99.90
54622;DHT22;40521;53.146;6.556;2022-11-03T15:21:01;13.90;99.90
54622;DHT22;40521;53.146;6.556;2022-11-03T15:23:26;12.00;99.90
54622;DHT22;40521;53.146;6.556;2022-11-03T15:25:53;13.80;99.90
54622;DHT22;40521;53.146;6.556;2022-11-03T15:28:19;14.30;99.90
54622;DHT22;40521;53.146;6.556;2022-11-03T15:30:45;13.80;99.90
54622;DHT22;40521;53.146;6.556;2022-11-03T15:33:11;13.70;99.90
54622;DHT22;40521;53.146;6.556;2022-11-03T15:35:37;13.80;99.90
54622;DHT22;40521;53.146;6.556;2022-11-03T15:38:03;13.70;99.90
54622;DHT22;40521;53.146;6.556;2022-11-03T15:40:28;13.70;99.90
54622;DHT22;40521;53.146;6.556;2022-11-03T15:42:54;13.60;99.90
54622;DHT22;40521;53.146;6.556;2022-11-03T15:45:19;11.60;99.90
54622;DHT22;40521;53.146;6.556;2022-11-03T15:47:45;13.60;99.90
54622;DHT22;40521;53.146;6.556;2022-11-03T15:50:11;13.50;99.90
54622;DHT22;40521;53.146;6.556;2022-11-03T15:52:37;13.50;99.90
54622;DHT22;40521;53.146;6.556;2022-11-03T15:55:03;13.50;99.90
54622;DHT22;40521;53.146;6.556;2022-11-03T15:57:30;13.50;99.90
54622;DHT22;40521;53.146;6.556;2022-11-03T15:59:56;13.50;99.90
54622;DHT22;40521;53.146;6.556;2022-11-03T16:02:21;12.80;99.90
54622;DHT22;40521;53.146;6.556;2022-11-03T16:04:47;13.40;99.90
54622;DHT22;40521;53.146;6.556;2022-11-03T16:07:13;13.40;99.90
54622;DHT22;40521;53.146;6.556;2022-11-03T16:09:41;13.40;99.90
54622;DHT22;40521;53.146;6.556;2022-11-03T16:12:07;13.00;99.90
54622;DHT22;40521;53.146;6.556;2022-11-03T16:14:33;13.30;99.90
54622;DHT22;40521;53.146;6.556;2022-11-03T16:16:58;13.30;99.90
54622;DHT22;40521;53.146;6.556;2022-11-03T16:19:24;13.30;99.90
54622;DHT22;40521;53.146;6.556;2022-11-03T16:21:49;13.20;99.90
54622;DHT22;40521;53.146;6.556;2022-11-03T16:24:16;13.20;99.90
54622;DHT22;40521;53.146;6.556;2022-11-03T16:26:42;13.20;99.90
54622;DHT22;40521;53.146;6.556;2022-11-03T16:29:10;13.10;99.90
54622;DHT22;40521;53.146;6.556;2022-11-03T16:31:35;13.20;99.90
54622;DHT22;40521;53.146;6.556;2022-11-03T16:34:01;13.10;99.90
54622;DHT22;40521;53.146;6.556;2022-11-03T16:36:29;13.20;99.90
54622;DHT22;40521;53.146;6.556;2022-11-03T16:39:00;13.10;99.90
54622;DHT22;40521;53.146;6.556;2022-11-03T16:41:29;11.80;99.90